Time;durP1;ratioP1;P1;durP2;ratioP2;P2;SDS_P1;SDS_P2;PMS_P1;PMS_P2;Temp;Humidity;BMP_temperature;BMP_pressure;BME280_temperature;BME280_humidity;BME280_pressure;Samples;Min_cycle;Max_cycle;Signal;HPM_P1;HPM_P2
2023/06/28 00:01:30;;;;;;;11.77;7.45;;;;;;;20.96;72.88;98328.09;5002286;28;20149;-92
2023/06/28 00:03:56;;;;;;;14.20;8.52;;;;;;;21.06;73.44;98356.16;5018767;28;20495;-92
2023/06/28 00:06:22;;;;;;;13.05;8.40;;;;;;;20.91;73.78;98333.84;5018605;28;20044;-93
2023/06/28 00:08:47;;;;;;;14.30;8.30;;;;;;;20.84;73.84;98321.78;5034576;28;20045;-94
2023/06/28 00:11:13;;;;;;;13.63;7.93;;;;;;;20.80;74.38;98320.28;5018573;28;20095;-93
2023/06/28 00:13:41;;;;;;;15.27;8.23;;;;;;;20.89;74.44;98343.06;5025386;28;20052;-93
2023/06/28 00:16:06;;;;;;;15.45;8.10;;;;;;;20.79;74.51;98323.97;5051602;28;20507;-92
2023/06/28 00:18:35;;;;;;;13.68;8.60;;;;;;;20.91;74.88;98350.06;5051773;28;20077;-92
2023/06/28 00:21:02;;;;;;;;;;;;;;;20.91;74.35;98344.66;5018813;28;20046;-94
2023/06/28 00:23:28;;;;;;;11.77;7.78;;;;;;;20.75;74.21;98324.31;5051894;28;19971;-92
2023/06/28 00:25:54;;;;;;;15.80;9.07;;;;;;;20.80;74.03;98333.81;5022511;28;20045;-92
2023/06/28 00:28:20;;;;;;;16.63;8.45;;;;;;;20.74;74.78;98334.28;5018039;28;20056;-93
2023/06/28 00:30:47;;;;;;;14.85;8.05;;;;;;;20.62;74.42;98327.94;5018648;28;20048;-94
2023/06/28 00:33:19;;;;;;;13.20;8.55;;;;;;;20.69;73.91;98340.03;5014558;28;20052;-92
2023/06/28 00:35:45;;;;;;;15.52;7.97;;;;;;;20.58;73.61;98315.66;5039816;28;20501;-93
2023/06/28 00:38:11;;;;;;;15.35;8.20;;;;;;;20.70;72.70;98340.88;5026722;28;20075;-93
2023/06/28 00:40:37;;;;;;;15.10;8.13;;;;;;;20.71;72.42;98340.78;5022417;28;20044;-92
2023/06/28 00:43:02;;;;;;;14.15;8.18;;;;;;;20.66;71.46;98334.84;5017718;28;20052;-92
2023/06/28 00:45:28;;;;;;;14.45;7.80;;;;;;;20.65;71.72;98308.81;5030473;28;20502;-92
2023/06/28 00:47:56;;;;;;;13.95;7.85;;;;;;;20.78;71.64;98321.41;5029113;28;20072;-93
2023/06/28 00:50:22;;;;;;;12.35;7.20;;;;;;;20.71;72.16;98321.00;5018376;28;20045;-93
2023/06/28 00:52:48;;;;;;;15.68;7.95;;;;;;;20.75;72.11;98333.28;5017517;28;20136;-92
2023/06/28 00:55:14;;;;;;;14.20;7.90;;;;;;;20.61;72.18;98306.47;5017254;28;20072;-93
2023/06/28 00:57:40;;;;;;;13.90;7.75;;;;;;;20.71;71.95;98340.78;5014130;28;20096;-93
2023/06/28 01:00:11;;;;;;;13.82;7.10;;;;;;;20.71;71.25;98342.63;5040060;28;20095;-93
2023/06/28 01:02:41;;;;;;;13.00;7.07;;;;;;;20.70;70.59;98340.88;5014367;28;20080;-92
2023/06/28 01:05:10;;;;;;;12.48;7.57;;;;;;;20.75;69.92;98338.69;5014672;28;20410;-94
2023/06/28 01:07:36;;;;;;;14.35;7.35;;;;;;;20.67;70.10;98325.75;5050385;28;20048;-93
2023/06/28 01:10:04;;;;;;;14.40;7.90;;;;;;;20.85;69.35;98355.94;5014320;28;20096;-92
2023/06/28 01:12:30;;;;;;;12.23;6.90;;;;;;;20.78;69.83;98338.47;5013042;28;20065;-93
2023/06/28 01:14:56;;;;;;;18.13;7.85;;;;;;;20.70;69.46;98322.81;5047351;28;20048;-91
2023/06/28 01:17:22;;;;;;;15.60;7.13;;;;;;;20.67;70.56;98319.50;5058858;28;20042;-93
2023/06/28 01:19:48;;;;;;;14.50;7.80;;;;;;;20.65;70.81;98329.56;5017172;28;20487;-94
2023/06/28 01:22:16;;;;;;;12.75;7.75;;;;;;;20.53;71.31;98315.09;5021923;28;20105;-92
2023/06/28 01:24:46;;;;;;;13.80;7.68;;;;;;;20.64;70.84;98342.19;5012393;28;20037;-93
2023/06/28 01:27:13;;;;;;;13.10;6.97;;;;;;;20.44;71.99;98310.38;4998598;28;20038;-93
2023/06/28 01:29:39;;;;;;;11.98;7.45;;;;;;;20.47;72.38;98334.44;5052145;28;20044;-93
2023/06/28 01:32:06;;;;;;;12.73;7.50;;;;;;;20.36;72.50;98320.91;5059359;28;20041;-93
2023/06/28 01:34:32;;;;;;;13.13;7.47;;;;;;;20.29;73.45;98328.59;5030998;28;20451;-93
2023/06/28 01:37:01;;;;;;;13.90;7.70;;;;;;;20.26;73.92;98336.94;5025785;28;20056;-92
2023/06/28 01:39:30;;;;;;;15.18;7.93;;;;;;;20.16;75.91;98342.13;5020532;28;20048;-94
2023/06/28 01:41:59;;;;;;;13.88;7.35;;;;;;;19.90;76.10;98304.41;5000931;28;20422;-92
2023/06/28 01:44:25;;;;;;;14.10;7.63;;;;;;;19.94;76.42;98315.84;5017116;28;20136;-93
2023/06/28 01:46:52;;;;;;;15.13;7.95;;;;;;;19.86;76.19;98324.50;5016650;28;20456;-93
2023/06/28 01:49:19;;;;;;;19.65;8.02;;;;;;;19.92;76.36;98339.38;5062417;28;20087;-93
2023/06/28 01:51:44;;;;;;;14.40;7.80;;;;;;;19.81;77.43;98333.91;5050085;28;20043;-94
2023/06/28 01:54:10;;;;;;;14.63;7.38;;;;;;;19.74;77.68;98341.56;5060635;28;20047;-93
2023/06/28 01:56:36;;;;;;;17.88;8.55;;;;;;;19.67;77.85;98338.41;5018397;28;20495;-93
2023/06/28 01:59:03;;;;;;;16.52;8.68;;;;;;;19.61;78.16;98319.13;5055847;28;20041;-92
2023/06/28 02:01:29;;;;;;;14.13;7.80;;;;;;;19.61;78.74;98341.53;5013119;28;20049;-94
2023/06/28 02:03:55;;;;;;;14.68;8.02;;;;;;;19.68;78.70;98342.81;5007805;28;20491;-92
2023/06/28 02:06:21;;;;;;;15.18;8.60;;;;;;;19.74;78.75;98338.88;5062720;28;20037;-93
2023/06/28 02:08:46;;;;;;;14.55;7.95;;;;;;;19.57;79.07;98307.66;5036248;28;20446;-93
2023/06/28 02:11:12;;;;;;;13.50;8.02;;;;;;;19.71;78.89;98330.97;5017982;28;20038;-93
2023/06/28 02:13:38;;;;;;;16.58;8.10;;;;;;;19.72;78.99;98330.03;5027891;28;20045;-94
2023/06/28 02:16:05;;;;;;;16.40;8.75;;;;;;;19.76;79.42;98338.78;5010485;28;20068;-94
2023/06/28 02:18:31;;;;;;;19.30;8.18;;;;;;;19.58;79.09;98305.81;5020783;28;20037;-93
2023/06/28 02:20:57;;;;;;;15.40;8.25;;;;;;;19.56;80.61;98313.16;5020619;28;20044;-93
2023/06/28 02:23:26;;;;;;;15.98;8.55;;;;;;;19.60;81.13;98322.75;5021021;28;20419;-91
2023/06/28 02:25:51;;;;;;;;;;;;;;;19.60;81.87;98337.09;5021551;28;20041;-93
2023/06/28 02:28:19;;;;;;;16.13;8.43;;;;;;;19.44;83.18;98328.41;5022122;28;20036;-92
2023/06/28 02:30:45;;;;;;;16.48;8.63;;;;;;;19.38;84.46;98329.66;5020107;28;20442;-93
2023/06/28 02:33:13;;;;;;;16.83;8.82;;;;;;;19.30;84.25;98321.28;5033891;28;20045;-92
2023/06/28 02:35:38;;;;;;;16.80;8.38;;;;;;;19.35;84.43;98324.50;5073249;28;20040;-93
2023/06/28 02:38:04;;;;;;;16.15;9.07;;;;;;;19.28;85.21;98317.84;5017091;28;20125;-93
2023/06/28 02:40:30;;;;;;;17.88;8.63;;;;;;;19.26;84.83;98308.97;5016953;28;20046;-93
2023/06/28 02:42:56;;;;;;;17.77;8.30;;;;;;;19.28;84.46;98302.50;5013642;28;20072;-93
2023/06/28 02:45:22;;;;;;;19.77;9.13;;;;;;;19.40;83.69;98327.72;5049321;28;20099;-92
2023/06/28 02:47:47;;;;;;;19.63;9.68;;;;;;;19.61;83.46;98333.44;5020447;28;20458;-91
2023/06/28 02:50:15;;;;;;;19.17;9.13;;;;;;;19.42;83.04;98314.16;5017256;28;20073;-92
2023/06/28 02:52:40;;;;;;;19.95;9.68;;;;;;;19.48;83.48;98324.50;5016840;28;20052;-93
2023/06/28 02:55:07;;;;;;;15.05;9.38;;;;;;;19.46;83.24;98321.91;5016173;28;20041;-93
2023/06/28 02:57:33;;;;;;;18.20;8.90;;;;;;;19.39;84.05;98331.41;5019899;28;20077;-92
2023/06/28 02:59:59;;;;;;;18.85;8.80;;;;;;;19.23;84.44;98315.44;5019496;28;20052;-93
2023/06/28 03:02:25;;;;;;;15.68;8.70;;;;;;;19.23;85.56;98330.75;5019582;28;20080;-93
2023/06/28 03:04:50;;;;;;;21.67;9.77;;;;;;;19.09;86.45;98319.09;5026932;28;20045;-91
2023/06/28 03:07:18;;;;;;;15.57;8.80;;;;;;;19.14;86.75;98334.94;5023751;28;20037;-92
2023/06/28 03:09:44;;;;;;;18.70;9.98;;;;;;;19.05;88.42;98331.06;5036202;28;20053;-92
2023/06/28 03:12:10;;;;;;;20.10;10.10;;;;;;;19.01;88.03;98323.28;5054753;28;20503;-94
2023/06/28 03:14:37;;;;;;;18.17;9.30;;;;;;;18.81;88.83;98306.66;5045726;28;20049;-92
2023/06/28 03:17:03;;;;;;;20.13;9.68;;;;;;;18.80;89.53;98318.41;5051890;28;20044;-93
2023/06/28 03:19:29;;;;;;;18.92;9.95;;;;;;;18.90;89.86;98333.94;5028316;28;20042;-92
2023/06/28 03:21:55;;;;;;;19.73;10.45;;;;;;;18.78;92.13;98331.13;5059724;28;20045;-92
2023/06/28 03:24:23;;;;;;;22.70;10.23;;;;;;;18.59;92.65;98318.00;5053971;28;20137;-94
2023/06/28 03:26:49;;;;;;;18.23;9.93;;;;;;;18.54;92.56;98306.66;5019582;28;20046;-92
2023/06/28 03:29:15;;;;;;;19.23;10.10;;;;;;;18.67;92.64;98326.41;5036460;28;20095;-95
2023/06/28 03:31:41;;;;;;;21.35;10.32;;;;;;;18.62;92.75;98325.84;5019037;28;20053;-94
2023/06/28 03:34:06;;;;;;;18.90;10.50;;;;;;;18.67;93.23;98331.81;5052411;28;20042;-94
2023/06/28 03:36:34;;;;;;;25.00;10.57;;;;;;;18.74;92.89;98336.78;5019114;28;20052;-93
2023/06/28 03:39:00;;;;;;;17.15;9.50;;;;;;;18.75;93.02;98336.66;5025600;28;20364;-92
2023/06/28 03:41:28;;;;;;;19.67;10.30;;;;;;;18.78;92.42;98339.19;5025539;28;20064;-93
2023/06/28 03:43:54;;;;;;;18.75;10.65;;;;;;;18.60;93.44;98308.94;5036891;28;20495;-94
2023/06/28 03:46:19;;;;;;;19.98;10.40;;;;;;;18.68;93.72;98311.97;5033727;28;20137;-93
2023/06/28 03:48:45;;;;;;;21.52;10.15;;;;;;;18.84;93.60;98333.38;5053157;28;20140;-94
2023/06/28 03:51:11;;;;;;;20.60;10.98;;;;;;;18.83;93.50;98320.03;5035783;28;20053;-93
2023/06/28 03:53:37;;;;;;;21.05;10.27;;;;;;;18.95;93.12;98335.34;5019194;28;20050;-94
2023/06/28 03:56:03;;;;;;;21.02;10.70;;;;;;;18.96;92.97;98323.59;5031510;28;20054;-93
2023/06/28 03:58:31;;;;;;;22.17;10.88;;;;;;;18.87;93.11;98302.69;5018685;28;20048;-93
2023/06/28 04:00:56;;;;;;;22.90;10.55;;;;;;;19.05;93.00;98327.50;5049954;28;20051;-94
2023/06/28 04:03:22;;;;;;;24.83;10.48;;;;;;;19.08;93.27;98325.47;5025098;28;20050;-93
2023/06/28 04:05:48;;;;;;;23.30;11.32;;;;;;;19.16;94.00;98340.25;5018767;28;20091;-93
2023/06/28 04:08:14;;;;;;;23.73;11.45;;;;;;;19.02;94.03;98312.41;5018609;28;20393;-94
2023/06/28 04:10:42;;;;;;;24.15;11.70;;;;;;;19.09;94.95;98329.03;5021502;28;20087;-92
2023/06/28 04:13:08;;;;;;;24.43;11.47;;;;;;;19.06;95.79;98338.19;5051357;28;20084;-93
2023/06/28 04:15:35;;;;;;;23.40;11.43;;;;;;;19.21;95.25;98354.25;5018429;28;20073;-93
2023/06/28 04:18:01;;;;;;;20.95;11.05;;;;;;;19.25;95.81;98343.13;5031267;28;20062;-93
2023/06/28 04:20:27;;;;;;;20.10;10.60;;;;;;;19.27;96.26;98343.91;5010877;28;20045;-94
2023/06/28 04:22:53;;;;;;;25.67;11.35;;;;;;;19.40;95.98;98348.44;5018434;28;20045;-92
2023/06/28 04:25:19;;;;;;;26.88;12.18;;;;;;;19.41;96.96;98348.34;5018407;28;20045;-95
2023/06/28 04:27:45;;;;;;;25.40;10.15;;;;;;;19.47;95.83;98345.22;5017960;28;20049;-93
2023/06/28 04:30:11;;;;;;;25.00;11.68;;;;;;;19.52;96.98;98344.00;5018366;28;20065;-94
2023/06/28 04:32:38;;;;;;;24.88;11.48;;;;;;;19.56;96.00;98338.31;5020295;28;20046;-93
2023/06/28 04:35:05;;;;;;;24.77;11.82;;;;;;;19.61;96.01;98343.38;5015290;28;20045;-94
2023/06/28 04:37:31;;;;;;;31.20;12.57;;;;;;;19.62;95.86;98337.00;5014957;28;20066;-94
2023/06/28 04:39:57;;;;;;;27.33;12.30;;;;;;;19.63;94.62;98336.06;5011627;28;20076;-92
2023/06/28 04:42:23;;;;;;;24.10;12.43;;;;;;;19.74;94.55;98338.88;5045337;28;20049;-93
2023/06/28 04:44:50;;;;;;;27.33;13.32;;;;;;;19.84;95.11;98347.16;5034069;28;20040;-93
2023/06/28 04:47:16;;;;;;;28.77;13.45;;;;;;;19.98;94.04;98348.88;5024021;28;20124;-94
2023/06/28 04:49:47;;;;;;;25.73;12.90;;;;;;;19.97;93.14;98341.75;5017820;28;20048;-92
2023/06/28 04:52:13;;;;;;;28.48;13.07;;;;;;;20.23;90.86;98351.53;5017915;28;20042;-94
2023/06/28 04:54:40;;;;;;;32.03;13.48;;;;;;;20.49;88.10;98332.50;5018151;28;20123;-92
2023/06/28 04:57:06;;;;;;;28.85;13.80;;;;;;;21.08;83.51;98346.06;5017852;28;20117;-94
2023/06/28 04:59:31;;;;;;;29.35;12.63;;;;;;;21.42;80.08;98326.38;5018416;28;20081;-93
2023/06/28 05:01:58;;;;;;;36.95;13.18;;;;;;;21.90;78.74;98347.81;5017411;28;20094;-93
2023/06/28 05:04:24;;;;;;;31.23;13.00;;;;;;;22.18;78.08;98337.47;5020525;28;20522;-92
2023/06/28 05:06:51;;;;;;;28.15;13.73;;;;;;;22.42;74.17;98342.75;5018281;28;20128;-94
2023/06/28 05:09:17;;;;;;;32.35;13.82;;;;;;;22.59;73.18;98333.22;5017551;28;20037;-94
2023/06/28 05:11:43;;;;;;;37.05;16.48;;;;;;;22.69;71.63;98316.06;5017283;28;20068;-94
2023/06/28 05:14:09;;;;;;;39.92;17.15;;;;;;;22.76;71.62;98330.81;5014377;28;20038;-94
2023/06/28 05:16:35;;;;;;;56.75;23.85;;;;;;;22.93;69.83;98331.25;5045609;28;20052;-93
2023/06/28 05:19:01;;;;;;;106.75;35.25;;;;;;;23.06;70.63;98345.50;5024360;28;20037;-95
2023/06/28 05:21:26;;;;;;;92.97;36.83;;;;;;;23.31;68.64;98333.44;5051325;28;20064;-92
2023/06/28 05:23:54;;;;;;;69.75;28.73;;;;;;;23.62;67.99;98359.75;5014947;28;20137;-93
2023/06/28 05:26:19;;;;;;;72.45;30.90;;;;;;;23.55;67.60;98363.00;5001784;28;20395;-92
2023/06/28 05:28:45;;;;;;;85.22;32.97;;;;;;;23.67;67.94;98360.19;5027578;28;20041;-93
2023/06/28 05:31:12;;;;;;;80.88;31.80;;;;;;;23.72;67.88;98330.78;5022692;28;20073;-93
2023/06/28 05:33:40;;;;;;;61.13;27.40;;;;;;;24.01;65.90;98358.13;5023694;28;20049;-93
2023/06/28 05:36:07;;;;;;;53.80;21.77;;;;;;;23.99;66.21;98341.94;5019807;28;20430;-94
2023/06/28 05:38:32;;;;;;;48.55;20.38;;;;;;;24.18;65.72;98348.44;5019880;28;20072;-94
2023/06/28 05:41:11;;;;;;;43.50;18.45;;;;;;;24.23;65.03;98329.03;5019796;28;20077;-92
2023/06/28 05:43:37;;;;;;;44.97;20.45;;;;;;;24.36;64.49;98325.06;5019929;28;20099;-94
2023/06/28 05:46:03;;;;;;;46.95;20.80;;;;;;;24.34;65.35;98327.03;5019710;28;20053;-93
2023/06/28 05:48:30;;;;;;;41.35;19.17;;;;;;;24.52;63.63;98327.25;5052470;28;20052;-93
2023/06/28 05:50:55;;;;;;;32.20;15.60;;;;;;;24.44;65.19;98334.34;5020023;28;20079;-94
2023/06/28 05:53:21;;;;;;;29.88;14.82;;;;;;;24.67;63.83;98341.28;5019458;28;20507;-92
2023/06/28 05:55:47;;;;;;;31.40;13.90;;;;;;;24.69;63.91;98333.00;5019142;28;20041;-93
2023/06/28 05:58:14;;;;;;;31.95;14.60;;;;;;;24.73;63.93;98361.63;5019156;28;20136;-94
2023/06/28 06:00:42;;;;;;;26.48;12.30;;;;;;;24.84;62.94;98349.78;5020711;28;20041;-93
2023/06/28 06:03:08;;;;;;;24.48;11.80;;;;;;;24.78;61.55;98330.28;5019591;28;20053;-93
2023/06/28 06:05:34;;;;;;;27.33;13.07;;;;;;;24.82;61.83;98349.06;5051356;28;20064;-92
2023/06/28 06:07:59;;;;;;;23.80;11.50;;;;;;;24.94;61.51;98348.78;5018913;28;20037;-94
2023/06/28 06:10:26;;;;;;;24.05;11.25;;;;;;;25.00;60.42;98339.16;5017685;28;20056;-93
2023/06/28 06:12:53;;;;;;;26.25;12.55;;;;;;;24.82;60.32;98336.31;5017536;28;20042;-93
2023/06/28 06:15:20;;;;;;;29.13;12.57;;;;;;;24.74;62.78;98341.59;5014741;28;20042;-93
2023/06/28 06:17:46;;;;;;;27.05;12.38;;;;;;;24.70;61.72;98345.59;4999245;28;20057;-94
2023/06/28 06:20:15;;;;;;;27.98;13.65;;;;;;;24.41;63.73;98335.50;5018170;28;20127;-93
2023/06/28 06:22:40;;;;;;;;;;;;;;;24.31;64.23;98357.22;5023988;28;20075;-93
2023/06/28 06:25:07;;;;;;;23.58;12.30;;;;;;;24.56;63.24;98344.16;5027660;28;19917;-94
2023/06/28 06:27:33;;;;;;;25.42;12.40;;;;;;;24.80;63.36;98327.44;5028986;28;20492;-93
2023/06/28 06:29:59;;;;;;;24.05;11.75;;;;;;;25.34;60.26;98349.63;5014181;28;20045;-92
2023/06/28 06:32:26;;;;;;;22.50;11.98;;;;;;;25.29;59.88;98360.13;5020812;28;20045;-93
2023/06/28 06:34:53;;;;;;;23.23;11.70;;;;;;;25.40;60.40;98362.66;5050553;28;20474;-93
2023/06/28 06:37:20;;;;;;;23.65;12.43;;;;;;;25.01;61.42;98368.09;5034297;28;20042;-92
2023/06/28 06:39:46;;;;;;;20.08;10.60;;;;;;;25.04;61.57;98362.34;5051711;28;20049;-94
2023/06/28 06:42:12;;;;;;;22.92;11.80;;;;;;;25.24;60.64;98344.19;5019560;28;20045;-93
2023/06/28 06:44:38;;;;;;;23.00;10.90;;;;;;;25.47;59.60;98363.78;5019898;28;20042;-92
2023/06/28 06:47:04;;;;;;;21.15;10.98;;;;;;;25.59;59.25;98339.97;5020339;28;20053;-93
2023/06/28 06:49:31;;;;;;;23.05;11.18;;;;;;;25.92;58.68;98367.75;5048282;28;20045;-92
2023/06/28 06:51:57;;;;;;;24.85;11.07;;;;;;;26.07;57.60;98359.91;5022727;28;20136;-92
2023/06/28 06:54:24;;;;;;;23.38;10.50;;;;;;;26.19;57.31;98356.00;5023626;28;20121;-93
2023/06/28 06:56:50;;;;;;;20.33;10.75;;;;;;;26.50;57.21;98355.69;5024090;28;20491;-92
2023/06/28 06:59:19;;;;;;;20.75;10.82;;;;;;;26.70;55.34;98338.25;5055462;28;20052;-92
2023/06/28 07:01:45;;;;;;;22.45;10.13;;;;;;;26.71;55.20;98330.91;5056821;28;20041;-92
2023/06/28 07:04:11;;;;;;;21.38;10.38;;;;;;;27.00;53.67;98349.75;5039289;28;20049;-93
2023/06/28 07:06:39;;;;;;;20.08;11.18;;;;;;;26.85;54.39;98335.84;5019226;28;20399;-93
2023/06/28 07:09:05;;;;;;;21.77;11.50;;;;;;;26.62;55.30;98341.72;5046629;28;20140;-91
2023/06/28 07:11:31;;;;;;;28.48;11.70;;;;;;;26.67;57.08;98334.94;5018481;28;20459;-93
2023/06/28 07:13:56;;;;;;;23.00;11.82;;;;;;;26.88;56.37;98359.22;5020201;28;20053;-94
2023/06/28 07:16:22;;;;;;;23.42;11.73;;;;;;;27.06;56.09;98360.06;5015583;28;20042;-94
2023/06/28 07:18:50;;;;;;;23.10;11.25;;;;;;;27.09;55.99;98339.78;5036536;28;20136;-94
2023/06/28 07:21:16;;;;;;;22.45;11.32;;;;;;;26.99;55.00;98353.53;5002526;28;20112;-94
2023/06/28 07:23:43;;;;;;;21.85;11.18;;;;;;;26.72;56.78;98358.03;5046807;28;20515;-93
2023/06/28 07:26:09;;;;;;;19.02;11.43;;;;;;;26.62;57.60;98346.31;5021164;28;20137;-94
2023/06/28 07:28:35;;;;;;;22.55;11.48;;;;;;;26.67;56.77;98333.06;5021529;28;20069;-93
2023/06/28 07:31:01;;;;;;;25.75;11.80;;;;;;;26.33;56.96;98358.22;5020691;28;20464;-93
2023/06/28 07:33:27;;;;;;;25.70;12.57;;;;;;;25.96;58.42;98348.22;5020936;28;20045;-94
2023/06/28 07:35:53;;;;;;;26.77;12.18;;;;;;;26.53;58.24;98331.72;5020695;28;20069;-94
2023/06/28 07:38:20;;;;;;;20.33;11.15;;;;;;;27.01;56.40;98337.84;5020092;28;20391;-95
2023/06/28 07:40:48;;;;;;;23.42;12.40;;;;;;;27.36;55.04;98333.41;5021199;28;20042;-93
2023/06/28 07:43:15;;;;;;;21.67;11.80;;;;;;;26.83;55.45;98326.94;5032364;28;20049;-95
2023/06/28 07:45:41;;;;;;;21.33;11.18;;;;;;;27.19;55.63;98314.13;5039432;28;20041;-94
2023/06/28 07:48:07;;;;;;;21.92;11.02;;;;;;;27.78;53.90;98330.78;5040552;28;20410;-93
2023/06/28 07:50:34;;;;;;;24.75;11.10;;;;;;;28.04;52.74;98328.06;5040101;28;20041;-93
2023/06/28 07:53:00;;;;;;;20.90;10.55;;;;;;;27.96;51.06;98336.22;5073024;28;20073;-93
2023/06/28 07:55:28;;;;;;;19.05;10.98;;;;;;;28.00;53.08;98325.81;5073133;28;20529;-93
2023/06/28 07:57:55;;;;;;;20.27;11.07;;;;;;;27.29;51.33;98315.94;5021769;28;20092;-93
2023/06/28 08:00:21;;;;;;;21.13;10.88;;;;;;;27.22;49.61;98323.91;5019560;28;20485;-94
2023/06/28 08:02:48;;;;;;;20.00;10.60;;;;;;;26.90;49.35;98317.13;5017147;28;20048;-95
2023/06/28 08:05:14;;;;;;;20.00;10.23;;;;;;;27.00;51.28;98312.44;5021461;28;20065;-95
2023/06/28 08:07:40;;;;;;;18.98;10.27;;;;;;;26.97;51.33;98312.72;5021199;28;20144;-93
2023/06/28 08:10:06;;;;;;;19.67;10.65;;;;;;;27.12;50.79;98309.47;5025775;28;20053;-95
2023/06/28 08:12:32;;;;;;;20.00;10.82;;;;;;;26.44;52.29;98308.09;5025678;28;20045;-95
2023/06/28 08:15:00;;;;;;;21.65;10.73;;;;;;;26.91;50.28;98307.06;5029854;28;20156;-94
2023/06/28 08:17:26;;;;;;;20.98;10.07;;;;;;;26.59;51.78;98308.47;5028305;28;20080;-93
2023/06/28 08:19:54;;;;;;;16.95;9.95;;;;;;;27.08;51.69;98328.00;5029034;28;20052;-95
2023/06/28 08:22:20;;;;;;;19.00;10.63;;;;;;;27.76;49.93;98315.56;5027387;28;20087;-95
2023/06/28 08:24:47;;;;;;;18.42;9.70;;;;;;;27.81;48.75;98307.75;5025849;28;20045;-96
2023/06/28 08:27:13;;;;;;;19.90;10.23;;;;;;;27.97;47.50;98315.19;5039929;28;20068;-95
2023/06/28 08:29:39;;;;;;;16.95;9.43;;;;;;;28.43;46.41;98324.81;5043981;28;20111;-96
2023/06/28 08:32:09;;;;;;;19.35;9.98;;;;;;;28.74;44.62;98313.28;5041700;28;20106;-95
2023/06/28 08:34:35;;;;;;;19.77;9.95;;;;;;;28.78;44.68;98319.25;5044930;28;20570;-95
2023/06/28 08:37:03;;;;;;;20.55;10.48;;;;;;;28.58;43.92;98318.72;5044467;28;20072;-94
2023/06/28 08:39:29;;;;;;;21.33;9.80;;;;;;;28.03;45.10;98320.88;5044716;28;20112;-96
2023/06/28 08:41:56;;;;;;;18.85;9.23;;;;;;;27.86;44.50;98294.47;5077658;28;20045;-95
2023/06/28 08:44:26;;;;;;;21.13;9.43;;;;;;;28.15;45.46;98318.72;5044922;28;20041;-95
2023/06/28 08:50:30;;;;;;;17.70;8.87;;;;;;;29.19;43.21;98335.75;5066656;27;1518448;-94
2023/06/28 08:52:57;;;;;;;17.05;9.00;;;;;;;29.39;42.19;98323.44;5103672;28;20302;-95
2023/06/28 08:55:24;;;;;;;14.13;8.32;;;;;;;29.54;40.98;98315.38;5101973;28;20093;-94
2023/06/28 08:58:41;;;;;;;16.05;8.48;;;;;;;29.76;41.26;98340.38;5095428;28;20043;-95
2023/06/28 09:01:08;;;;;;;13.98;8.23;;;;;;;29.87;41.26;98320.81;5096164;28;20024;-94
2023/06/28 09:03:39;;;;;;;15.93;9.18;;;;;;;29.96;40.69;98321.66;5096320;28;20105;-94
2023/06/28 09:06:07;;;;;;;13.45;8.45;;;;;;;30.08;41.36;98321.09;5098093;28;20036;-96
2023/06/28 09:08:34;;;;;;;15.07;9.13;;;;;;;29.98;40.05;98314.09;5096846;28;20044;-95
2023/06/28 09:11:00;;;;;;;18.63;8.20;;;;;;;30.10;39.56;98307.19;5097737;28;20131;-96
2023/06/28 09:13:27;;;;;;;18.75;8.85;;;;;;;29.92;39.86;98299.22;5098441;28;20203;-95
2023/06/28 09:15:53;;;;;;;14.10;8.27;;;;;;;30.00;41.35;98314.78;5098514;28;20043;-93
2023/06/28 09:18:19;;;;;;;15.55;8.63;;;;;;;29.92;41.06;98332.09;5095609;28;20135;-94
2023/06/28 09:20:49;;;;;;;14.25;8.00;;;;;;;29.78;41.03;98316.41;5095917;28;20382;-93
2023/06/28 09:23:21;;;;;;;15.25;8.27;;;;;;;29.64;44.25;98339.84;5095795;28;20048;-94
2023/06/28 09:25:49;;;;;;;16.45;8.80;;;;;;;28.54;43.26;98333.72;5095543;28;20052;-94
2023/06/28 09:28:23;;;;;;;16.73;8.90;;;;;;;28.81;43.05;98305.25;5096008;28;20056;-92
2023/06/28 09:30:52;;;;;;;13.02;8.00;;;;;;;29.33;42.74;98332.34;5097141;28;20138;-94
2023/06/28 09:33:19;;;;;;;16.00;9.05;;;;;;;29.23;43.05;98313.34;5098463;28;20085;-94
2023/06/28 09:35:45;;;;;;;15.63;9.18;;;;;;;29.65;42.90;98338.81;5098130;28;20047;-93
2023/06/28 09:38:13;;;;;;;14.10;8.27;;;;;;;29.90;41.77;98315.81;5096035;28;20392;-93
2023/06/28 09:40:40;;;;;;;16.15;8.43;;;;;;;30.04;40.25;98324.38;5096525;28;20044;-94
2023/06/28 09:43:14;;;;;;;13.75;8.65;;;;;;;29.16;42.08;98323.25;5098165;28;20039;-95
2023/06/28 09:45:40;;;;;;;13.32;7.90;;;;;;;29.41;42.42;98343.28;5097643;28;20040;-93
2023/06/28 09:48:06;;;;;;;15.82;8.85;;;;;;;29.48;42.03;98324.28;5096531;28;20035;-93
2023/06/28 09:50:36;;;;;;;14.65;8.23;;;;;;;29.97;41.04;98332.44;5075877;28;20044;-92
2023/06/28 09:53:02;;;;;;;15.77;8.57;;;;;;;30.22;40.93;98321.38;5075316;28;20047;-93
2023/06/28 09:55:28;;;;;;;11.55;7.35;;;;;;;30.11;42.35;98341.81;5075399;28;20139;-93
2023/06/28 09:57:57;;;;;;;16.65;8.25;;;;;;;30.41;41.02;98322.88;5075124;28;20040;-94
2023/06/28 10:00:25;;;;;;;;;;;;;;;30.53;39.74;98343.38;5069527;28;20052;-92
2023/06/28 10:02:50;;;;;;;;;;;;;;;29.98;42.24;98339.63;5062125;28;19920;-93
2023/06/28 10:05:16;;;;;;;13.60;8.38;;;;;;;29.80;41.54;98323.41;5062374;28;20320;-94
2023/06/28 10:07:48;;;;;;;14.68;8.20;;;;;;;29.91;41.94;98322.19;5061536;28;20040;-94
2023/06/28 10:10:14;;;;;;;13.95;8.20;;;;;;;30.16;41.81;98336.66;5061967;28;20045;-94
2023/06/28 10:12:40;;;;;;;12.80;8.27;;;;;;;28.99;41.59;98329.72;5061093;28;20048;-93
2023/06/28 10:15:12;;;;;;;16.15;8.65;;;;;;;28.80;42.24;98337.25;5060321;28;20067;-93
2023/06/28 10:17:38;;;;;;;14.20;8.52;;;;;;;29.33;42.84;98343.28;5060460;28;20040;-94
2023/06/28 10:20:08;;;;;;;14.20;8.95;;;;;;;29.87;42.22;98353.72;5060462;28;20041;-93
2023/06/28 10:22:35;;;;;;;14.20;8.65;;;;;;;29.83;41.32;98352.34;5056304;28;20041;-92
2023/06/28 10:25:02;;;;;;;12.38;8.05;;;;;;;29.58;41.98;98351.50;5050589;28;20033;-95
2023/06/28 10:27:28;;;;;;;13.15;8.35;;;;;;;29.67;41.64;98343.09;5060957;28;20051;-94
2023/06/28 10:29:56;;;;;;;14.52;8.60;;;;;;;29.93;41.29;98341.19;5061862;28;20040;-93
2023/06/28 10:32:23;;;;;;;13.30;7.63;;;;;;;30.23;41.64;98362.34;5061358;28;20055;-92
2023/06/28 10:34:51;;;;;;;16.17;8.85;;;;;;;29.82;41.49;98348.75;5062360;28;20040;-93
2023/06/28 10:37:20;;;;;;;14.57;8.90;;;;;;;29.98;40.77;98349.75;5060697;28;20055;-94
2023/06/28 10:39:46;;;;;;;13.95;8.15;;;;;;;29.56;40.53;98368.13;5060598;28;20482;-93
2023/06/28 10:42:12;;;;;;;11.90;8.32;;;;;;;29.54;41.18;98341.91;5060589;28;20070;-94
2023/06/28 10:44:50;;;;;;;14.13;7.30;;;;;;;29.73;40.62;98344.31;5060074;28;20490;-93
2023/06/28 10:47:16;;;;;;;16.95;7.95;;;;;;;30.09;40.59;98350.22;5059950;28;20127;-92
2023/06/28 10:50:04;;;;;;;12.02;7.53;;;;;;;30.39;40.45;98349.63;5059150;28;20037;-94
2023/06/28 10:52:30;;;;;;;;;;;;;;;30.69;40.11;98354.28;5060127;28;20102;-93
2023/06/28 10:54:56;;;;;;;11.43;7.70;;;;;;;30.98;39.56;98355.50;5054893;28;19920;-94
2023/06/28 10:57:35;;;;;;;15.10;8.00;;;;;;;29.79;40.13;98340.88;5060110;28;20036;-94
2023/06/28 11:00:09;;;;;;;14.82;7.97;;;;;;;29.67;40.97;98320.34;5060245;28;20068;-93
2023/06/28 11:02:59;;;;;;;13.77;8.35;;;;;;;29.92;41.76;98340.31;5060053;28;20040;-93
2023/06/28 11:05:50;;;;;;;11.13;7.43;;;;;;;30.52;40.56;98351.81;5061164;28;20040;-94
2023/06/28 11:08:16;;;;;;;13.15;7.38;;;;;;;30.52;40.12;98352.66;5059472;28;20041;-95
2023/06/28 11:10:44;;;;;;;12.98;8.05;;;;;;;30.70;39.42;98330.44;5062768;28;20159;-93
2023/06/28 11:13:10;;;;;;;13.60;7.97;;;;;;;30.79;37.72;98328.47;5060569;28;20044;-92
2023/06/28 11:15:43;;;;;;;13.32;7.63;;;;;;;30.64;38.62;98325.66;5060311;28;20055;-94
2023/06/28 11:18:11;;;;;;;16.30;8.70;;;;;;;30.44;38.99;98342.56;5060761;28;20040;-92
2023/06/28 11:20:58;;;;;;;12.65;7.97;;;;;;;30.01;40.95;98339.25;5059980;28;20497;-92
2023/06/28 11:23:28;;;;;;;10.82;7.53;;;;;;;30.29;40.12;98341.59;5061622;28;20529;-93
2023/06/28 11:25:57;;;;;;;11.23;7.80;;;;;;;30.52;39.92;98324.38;5061104;28;20082;-93
2023/06/28 11:28:28;;;;;;;14.02;8.10;;;;;;;30.70;40.54;98328.53;5061758;28;20107;-94